Time;durP1;ratioP1;P1;durP2;ratioP2;P2;SDS_P1;SDS_P2;PMS_P1;PMS_P2;Temp;Humidity;BMP_temperature;BMP_pressure;BME280_temperature;BME280_humidity;BME280_pressure;Samples;Min_cycle;Max_cycle;Signal;HPM_P1;HPM_P2
2021/12/04 00:02:31;;;;;;;48.23;32.38;;;18.00;73.70;;;;;;1793203;78;21103;-79
2021/12/04 00:05:05;;;;;;;43.55;31.15;;;18.00;73.70;;;;;;1821981;77;21147;-79
2021/12/04 00:07:37;;;;;;;43.23;28.40;;;18.00;73.70;;;;;;1826409;77;21166;-79
2021/12/04 00:10:13;;;;;;;45.23;28.80;;;18.00;73.50;;;;;;1826270;77;21687;-79
2021/12/04 00:12:41;;;;;;;40.50;27.80;;;18.10;73.70;;;;;;1821951;77;21606;-79
2021/12/04 00:15:13;;;;;;;33.63;25.62;;;18.10;73.40;;;;;;1799101;77;21240;-77
2021/12/04 00:17:43;;;;;;;46.95;25.82;;;18.10;73.50;;;;;;1815878;77;21687;-77
2021/12/04 00:20:15;;;;;;;37.05;25.55;;;18.10;73.40;;;;;;1822961;76;21194;-81
2021/12/04 00:22:46;;;;;;;39.92;24.75;;;18.20;73.30;;;;;;1819614;78;21146;-75
2021/12/04 00:25:17;;;;;;;36.33;24.40;;;18.20;72.80;;;;;;1822536;77;21645;-75
2021/12/04 00:27:47;;;;;;;34.75;24.27;;;18.20;72.40;;;;;;1814386;76;21142;-76
2021/12/04 00:30:18;;;;;;;39.53;24.87;;;18.30;72.40;;;;;;1821094;77;21099;-75
2021/12/04 00:33:15;;;;;;;42.05;24.80;;;18.30;72.30;;;;;;1820517;77;21179;-77
2021/12/04 00:50:37;;;;;;;33.13;23.15;;;18.60;71.00;;;;;;1785895;78;21265;-77
2021/12/04 00:53:08;;;;;;;32.95;22.58;;;18.60;70.40;;;;;;1791062;78;21172;-77
2021/12/04 00:55:39;;;;;;;34.53;22.73;;;18.70;69.60;;;;;;1790294;78;21118;-77
2021/12/04 00:58:10;;;;;;;32.38;21.33;;;18.70;69.80;;;;;;1787738;78;21204;-77
2021/12/04 01:00:42;;;;;;;35.17;21.80;;;18.70;69.00;;;;;;1784450;78;21142;-77
2021/12/04 01:03:13;;;;;;;35.48;22.22;;;18.70;69.00;;;;;;1767540;79;21242;-77
2021/12/04 01:05:45;;;;;;;34.48;22.05;;;18.80;68.70;;;;;;1766314;79;21117;-78
2021/12/04 01:08:16;;;;;;;34.88;22.70;;;18.80;68.70;;;;;;1774705;79;21635;-77
2021/12/04 01:10:47;;;;;;;29.72;21.37;;;18.80;68.40;;;;;;1747819;80;21267;-77
2021/12/04 01:13:17;;;;;;;33.30;21.95;;;18.90;68.10;;;;;;1773315;78;21148;-77
2021/12/04 01:15:49;;;;;;;39.63;22.20;;;18.90;67.20;;;;;;1822807;77;21277;-77
2021/12/04 01:18:20;;;;;;;32.38;20.97;;;18.90;66.60;;;;;;1797362;78;21197;-77
2021/12/04 01:20:51;;;;;;;37.28;23.38;;;18.90;66.40;;;;;;1830220;77;21603;-77
2021/12/04 01:23:22;;;;;;;35.40;22.90;;;19.00;66.20;;;;;;1822075;78;21201;-77
2021/12/04 01:25:53;;;;;;;34.73;21.85;;;19.10;66.00;;;;;;1788901;78;21626;-78
2021/12/04 01:28:24;;;;;;;33.02;20.85;;;19.10;65.80;;;;;;1793819;78;21158;-76
2021/12/04 01:30:56;;;;;;;31.42;20.40;;;19.20;65.00;;;;;;1758067;80;21202;-77
2021/12/04 01:33:28;;;;;;;32.80;17.77;;;19.30;64.80;;;;;;1765064;80;21276;-76
2021/12/04 01:35:59;;;;;;;29.75;19.92;;;19.30;63.90;;;;;;1792996;79;21228;-77
2021/12/04 01:38:30;;;;;;;26.65;18.27;;;19.40;64.00;;;;;;1788996;78;21272;-77
2021/12/04 01:41:00;;;;;;;29.67;16.40;;;19.50;63.50;;;;;;1800089;78;21154;-77
2021/12/04 01:43:31;;;;;;;26.68;16.87;;;19.60;62.70;;;;;;1821858;78;21208;-77
2021/12/04 01:46:03;;;;;;;30.75;17.82;;;19.70;61.90;;;;;;1816081;78;21538;-77
2021/12/04 01:48:34;;;;;;;31.95;17.60;;;19.70;60.90;;;;;;1834930;78;21914;-78
2021/12/04 01:51:05;;;;;;;27.75;18.10;;;19.80;61.60;;;;;;1821414;78;21182;-78
2021/12/04 01:53:36;;;;;;;27.45;17.35;;;19.90;61.30;;;;;;1810497;78;21197;-78
2021/12/04 01:56:09;;;;;;;29.98;18.25;;;20.00;60.00;;;;;;1813126;78;21231;-77
2021/12/04 01:58:42;;;;;;;31.20;17.30;;;20.00;59.60;;;;;;1819428;78;21680;-77
2021/12/04 02:01:13;;;;;;;27.17;16.12;;;20.00;60.20;;;;;;1793590;78;21201;-77
2021/12/04 02:03:44;;;;;;;25.23;15.75;;;20.10;59.60;;;;;;1809037;78;21155;-78
2021/12/04 02:06:15;;;;;;;26.52;16.32;;;20.20;59.00;;;;;;1781868;79;21890;-78
2021/12/04 02:08:46;;;;;;;24.60;15.10;;;20.20;58.80;;;;;;1801719;79;21130;-77
2021/12/04 02:11:17;;;;;;;31.05;16.07;;;20.30;57.80;;;;;;1752063;81;21624;-78
2021/12/04 02:13:48;;;;;;;30.82;16.50;;;20.40;57.10;;;;;;1829796;78;21158;-78
2021/12/04 02:16:38;;;;;;;24.43;15.08;;;20.40;57.20;;;;;;1830955;78;21240;-78
2021/12/04 02:19:09;;;;;;;27.48;14.63;;;20.50;57.30;;;;;;1870591;76;21131;-76
2021/12/04 02:21:39;;;;;;;25.55;12.98;;;20.60;57.00;;;;;;1873849;76;21610;-77
2021/12/04 02:24:10;;;;;;;21.45;12.78;;;20.70;55.40;;;;;;1875842;76;21126;-76
2021/12/04 02:26:41;;;;;;;24.35;11.97;;;20.70;55.70;;;;;;1884159;74;21536;-77
2021/12/04 02:29:12;;;;;;;26.23;12.05;;;20.80;55.20;;;;;;1886202;76;21172;-77
2021/12/04 02:31:45;;;;;;;21.17;11.22;;;20.90;55.10;;;;;;1872680;76;21162;-77
2021/12/04 02:34:19;;;;;;;26.65;12.07;;;21.00;55.00;;;;;;1865673;76;21598;-78
2021/12/04 02:36:51;;;;;;;14.15;9.45;;;21.10;54.50;;;;;;1867088;76;21126;-75
2021/12/04 02:39:30;;;;;;;15.80;9.18;;;21.20;54.00;;;;;;1806256;77;21128;-76
2021/12/04 02:42:01;;;;;;;18.98;9.58;;;21.30;53.20;;;;;;1870162;76;21185;-78
2021/12/04 02:44:35;;;;;;;19.30;9.90;;;21.40;52.30;;;;;;1872209;76;21589;-78
2021/12/04 02:47:07;;;;;;;15.90;9.73;;;21.40;53.00;;;;;;1873452;76;21185;-80
2021/12/04 02:49:38;;;;;;;18.32;9.45;;;21.60;52.20;;;;;;1858713;76;21621;-79
2021/12/04 02:52:10;;;;;;;15.23;8.98;;;21.60;52.40;;;;;;1875546;76;21111;-77
2021/12/04 02:54:42;;;;;;;14.93;8.75;;;21.70;52.50;;;;;;1877988;76;21586;-79
2021/12/04 02:57:15;;;;;;;19.85;8.68;;;21.80;52.20;;;;;;1869053;76;21087;-78
2021/12/04 02:59:48;;;;;;;17.75;8.95;;;21.90;52.20;;;;;;1871186;76;21193;-78
2021/12/04 03:02:21;;;;;;;15.98;8.58;;;22.00;52.40;;;;;;1865108;76;21190;-78
2021/12/04 03:04:54;;;;;;;19.42;8.65;;;22.10;52.60;;;;;;1834949;77;21657;-79
2021/12/04 03:07:26;;;;;;;16.55;8.80;;;22.20;52.80;;;;;;1841433;76;21135;-79
2021/12/04 03:09:57;;;;;;;19.35;8.65;;;22.30;52.30;;;;;;1873025;76;21184;-78
2021/12/04 03:12:28;;;;;;;18.82;8.63;;;22.40;52.40;;;;;;1868590;76;21114;-78
2021/12/04 03:14:59;;;;;;;16.25;8.43;;;22.40;52.20;;;;;;1873976;76;21136;-78
2021/12/04 03:17:31;;;;;;;14.78;7.75;;;22.50;52.40;;;;;;1865075;76;21075;-78
2021/12/04 03:20:03;;;;;;;18.85;9.25;;;22.60;52.50;;;;;;1876950;76;21127;-78
2021/12/04 03:22:33;;;;;;;17.20;8.90;;;22.70;52.00;;;;;;1876875;76;21155;-78
2021/12/04 03:25:04;;;;;;;16.52;7.92;;;22.70;52.30;;;;;;1873005;76;21188;-78
2021/12/04 03:27:35;;;;;;;15.08;8.90;;;22.80;51.80;;;;;;1869944;76;21118;-79
2021/12/04 03:30:16;;;;;;;20.43;9.83;;;22.90;51.70;;;;;;1868726;76;21150;-79
2021/12/04 03:40:54;;;;;;;21.62;9.33;;;23.30;52.30;;;;;;1865917;76;21162;-80
2021/12/04 03:42:50;;;;;;;15.20;8.70;;;23.40;52.20;;;;;;1869636;76;21142;-78
2021/12/04 03:45:21;;;;;;;16.82;8.83;;;23.40;51.70;;;;;;1884821;76;21205;-79
2021/12/04 03:47:56;;;;;;;19.55;8.95;;;23.50;52.00;;;;;;1879229;76;21208;-79
2021/12/04 03:50:24;;;;;;;15.23;7.97;;;23.60;52.10;;;;;;1891985;75;21196;-78
2021/12/04 03:52:55;;;;;;;15.05;7.87;;;23.60;52.10;;;;;;1874855;76;21646;-79
2021/12/04 03:55:26;;;;;;;19.42;9.10;;;23.70;51.10;;;;;;1879280;76;21574;-78
2021/12/04 03:57:56;;;;;;;14.03;7.80;;;23.80;51.20;;;;;;1871931;76;21548;-78
2021/12/04 04:00:28;;;;;;;15.90;9.05;;;23.90;51.30;;;;;;1872870;76;21184;-78
2021/12/04 04:02:59;;;;;;;16.57;8.83;;;24.00;50.50;;;;;;1879686;76;21177;-79
2021/12/04 04:05:30;;;;;;;15.70;8.28;;;24.10;50.50;;;;;;1883612;76;21831;-79
2021/12/04 04:08:01;;;;;;;18.67;8.93;;;24.20;50.60;;;;;;1882999;76;21618;-79
2021/12/04 04:10:32;;;;;;;14.07;8.38;;;24.30;50.40;;;;;;1878003;76;21126;-78
2021/12/04 04:13:03;;;;;;;15.40;8.68;;;24.40;50.40;;;;;;1879395;76;21500;-78
2021/12/04 04:15:34;;;;;;;21.07;9.38;;;24.40;50.10;;;;;;1885348;76;21236;-79
2021/12/04 04:18:05;;;;;;;18.37;9.28;;;24.50;50.30;;;;;;1885131;76;21088;-79
2021/12/04 04:20:40;;;;;;;16.35;9.45;;;24.60;49.70;;;;;;1877455;75;21225;-79
2021/12/04 04:23:08;;;;;;;17.62;9.15;;;24.70;49.40;;;;;;1873061;76;21675;-79
2021/12/04 04:25:39;;;;;;;14.53;8.23;;;24.80;49.40;;;;;;1886863;76;21122;-79
2021/12/04 04:28:10;;;;;;;13.28;8.43;;;24.90;48.60;;;;;;1884359;76;21613;-79
2021/12/04 04:30:41;;;;;;;14.15;8.13;;;25.00;49.10;;;;;;1875960;76;21591;-79
2021/12/04 04:33:14;;;;;;;19.27;8.50;;;25.00;48.80;;;;;;1883750;76;21135;-80
2021/12/04 04:35:50;;;;;;;19.37;8.53;;;25.10;49.10;;;;;;1874164;76;21712;-79
2021/12/04 04:38:31;;;;;;;16.27;8.03;;;25.10;48.00;;;;;;1885389;76;21079;-79
2021/12/04 05:11:23;;;;;;;14.58;7.90;;;26.20;45.30;;;;;;1870603;74;21127;-79
2021/12/04 05:13:58;;;;;;;13.45;7.80;;;26.20;45.80;;;;;;1867507;74;21095;-78
2021/12/04 05:16:30;;;;;;;16.02;8.43;;;26.30;46.30;;;;;;1832192;77;21140;-79
2021/12/04 05:19:01;;;;;;;14.60;8.23;;;26.30;45.60;;;;;;1869136;76;21598;-79
2021/12/04 05:21:31;;;;;;;14.60;7.62;;;26.40;45.90;;;;;;1856678;74;21177;-79
2021/12/04 05:24:02;;;;;;;16.93;8.30;;;26.50;45.90;;;;;;1882079;76;21157;-79
2021/12/04 05:26:32;;;;;;;15.43;7.22;;;26.50;45.70;;;;;;1842490;76;21130;-78
2021/12/04 05:29:37;;;;;;;16.95;8.08;;;26.60;44.40;;;;;;1838774;76;21163;-80
2021/12/04 05:31:49;;;;;;;17.27;7.70;;;26.60;45.00;;;;;;1820095;78;21154;-79
2021/12/04 05:34:20;;;;;;;16.55;7.95;;;26.60;45.50;;;;;;1818453;77;21673;-79
2021/12/04 05:36:51;;;;;;;15.63;7.55;;;26.60;44.80;;;;;;1822639;77;21208;-78
2021/12/04 05:39:22;;;;;;;13.78;7.35;;;26.70;45.10;;;;;;1790683;80;21622;-79
2021/12/04 05:41:53;;;;;;;13.43;8.00;;;26.70;44.70;;;;;;1855627;75;21201;-80
2021/12/04 05:44:27;;;;;;;15.50;8.10;;;26.70;44.30;;;;;;1806404;78;21154;-80
2021/12/04 05:48:05;;;;;;;15.53;7.55;;;26.80;43.90;;;;;;1789196;80;21239;-80
2021/12/04 05:52:18;;;;;;;14.95;7.20;;;26.80;44.30;;;;;;1822825;79;21088;-77
2021/12/04 05:54:48;;;;;;;14.60;7.35;;;26.80;43.90;;;;;;1821601;77;21753;-78
2021/12/04 05:57:05;;;;;;;11.50;7.30;;;26.80;44.30;;;;;;1794703;78;21131;-78
2021/12/04 05:59:38;;;;;;;14.40;7.72;;;26.90;44.60;;;;;;1855672;75;21182;-78
2021/12/04 06:02:09;;;;;;;14.95;8.13;;;27.00;43.10;;;;;;1847180;75;21103;-78
2021/12/04 06:04:40;;;;;;;15.18;8.03;;;27.00;43.50;;;;;;1855726;75;21570;-78
2021/12/04 06:07:12;;;;;;;16.52;7.72;;;27.00;44.00;;;;;;1820050;77;21205;-78
2021/12/04 06:09:43;;;;;;;11.25;7.08;;;27.00;43.30;;;;;;1826872;77;21626;-78
2021/12/04 06:12:13;;;;;;;15.20;7.25;;;27.00;42.20;;;;;;1824754;75;21560;-79
2021/12/04 06:14:46;;;;;;;19.23;7.80;;;27.00;42.40;;;;;;1822009;77;21182;-77
2021/12/04 06:17:22;;;;;;;14.45;7.25;;;27.00;42.20;;;;;;1822442;77;21874;-78
2021/12/04 06:24:53;;;;;;;12.98;6.95;;;27.10;42.60;;;;;;1785402;79;21752;-77
2021/12/04 06:27:25;;;;;;;18.60;7.20;;;27.20;42.60;;;;;;1854796;76;21199;-77
2021/12/04 06:29:56;;;;;;;15.08;7.53;;;27.30;42.50;;;;;;1851410;76;21565;-78
2021/12/04 06:32:27;;;;;;;14.85;7.45;;;27.30;42.20;;;;;;1852741;76;21763;-78
2021/12/04 06:34:58;;;;;;;14.75;8.15;;;27.30;42.40;;;;;;1851041;76;21166;-79
2021/12/04 06:37:28;;;;;;;12.40;7.37;;;27.30;42.20;;;;;;1850313;76;21138;-78
2021/12/04 06:40:00;;;;;;;12.88;7.37;;;27.30;42.10;;;;;;1851590;76;21570;-79
2021/12/04 06:42:31;;;;;;;17.95;8.00;;;27.30;42.00;;;;;;1850456;76;21056;-79
2021/12/04 06:45:02;;;;;;;14.75;8.10;;;27.30;42.60;;;;;;1850821;76;21141;-78
2021/12/04 06:47:35;;;;;;;12.60;7.20;;;27.30;42.10;;;;;;1848519;76;21677;-79
2021/12/04 06:50:14;;;;;;;14.10;8.10;;;27.20;42.30;;;;;;1852604;76;21671;-78
2021/12/04 06:52:44;;;;;;;14.13;8.20;;;27.20;42.40;;;;;;1849431;76;21150;-78
2021/12/04 06:55:15;;;;;;;15.43;8.00;;;27.20;42.00;;;;;;1849318;76;21107;-78
2021/12/04 06:57:46;;;;;;;11.20;7.65;;;27.10;42.00;;;;;;1850889;76;21870;-78
2021/12/04 07:00:17;;;;;;;17.30;7.67;;;27.10;42.20;;;;;;1815515;77;21087;-79
2021/12/04 07:02:48;;;;;;;17.02;8.95;;;27.00;42.50;;;;;;1849610;76;21321;-78
2021/12/04 07:05:19;;;;;;;13.80;8.40;;;27.00;42.80;;;;;;1852371;76;21129;-78
2021/12/04 07:07:50;;;;;;;16.30;8.15;;;27.00;42.40;;;;;;1852870;76;21610;-78
2021/12/04 07:10:21;;;;;;;11.90;7.15;;;27.00;42.70;;;;;;1850033;76;21131;-79
2021/12/04 07:12:52;;;;;;;15.28;7.62;;;27.00;43.20;;;;;;1852035;76;21111;-78
2021/12/04 07:15:26;;;;;;;23.80;9.90;;;27.10;43.20;;;;;;1853140;76;21071;-78
2021/12/04 07:17:55;;;;;;;12.98;7.62;;;27.10;42.60;;;;;;1849102;77;21575;-78
2021/12/04 07:20:26;;;;;;;12.53;8.08;;;27.10;42.90;;;;;;1851251;76;21131;-78
2021/12/04 07:22:59;;;;;;;13.85;8.20;;;27.20;43.30;;;;;;1849748;77;21449;-78
2021/12/04 07:25:31;;;;;;;16.70;7.65;;;27.20;43.10;;;;;;1852880;76;21149;-78
2021/12/04 07:28:02;;;;;;;15.23;7.72;;;27.20;42.80;;;;;;1852685;77;21102;-78
2021/12/04 07:30:33;;;;;;;12.33;6.90;;;27.20;43.40;;;;;;1848567;76;21095;-79
2021/12/04 07:33:04;;;;;;;13.25;7.08;;;27.20;43.50;;;;;;1850590;77;21135;-78
2021/12/04 07:35:35;;;;;;;15.90;7.45;;;27.20;42.50;;;;;;1853417;76;21161;-78
2021/12/04 07:38:06;;;;;;;13.20;8.45;;;27.20;42.50;;;;;;1849459;77;21138;-78
2021/12/04 07:40:38;;;;;;;17.48;7.55;;;27.10;42.30;;;;;;1844445;76;21119;-78
2021/12/04 07:43:08;;;;;;;14.47;7.05;;;27.10;42.00;;;;;;1847338;76;21154;-79
2021/12/04 07:45:40;;;;;;;17.87;8.13;;;27.00;42.30;;;;;;1824783;76;21071;-77
2021/12/04 07:48:11;;;;;;;16.62;7.70;;;27.00;42.60;;;;;;1850467;76;21201;-78
2021/12/04 07:50:42;;;;;;;16.75;8.45;;;27.00;42.70;;;;;;1847635;76;21244;-79
2021/12/04 07:53:13;;;;;;;15.43;7.83;;;27.00;42.90;;;;;;1851737;77;21083;-79
2021/12/04 07:55:45;;;;;;;13.98;7.50;;;27.00;43.10;;;;;;1871574;76;21601;-78
2021/12/04 07:58:16;;;;;;;16.17;7.83;;;26.90;42.60;;;;;;1848875;77;21080;-79
2021/12/04 08:00:46;;;;;;;14.13;7.25;;;26.90;41.70;;;;;;1848129;76;21120;-79
2021/12/04 08:03:36;;;;;;;12.60;7.60;;;26.90;41.60;;;;;;1853009;76;21184;-79
2021/12/04 08:06:08;;;;;;;15.25;7.67;;;26.90;40.90;;;;;;1796576;78;21816;-79
2021/12/04 08:08:38;;;;;;;12.93;7.42;;;26.80;40.60;;;;;;1832976;77;21166;-79
2021/12/04 08:11:09;;;;;;;13.05;7.45;;;26.80;40.90;;;;;;1829147;77;21200;-79
2021/12/04 08:13:40;;;;;;;12.95;7.50;;;26.80;41.50;;;;;;1829679;77;21091;-79
2021/12/04 08:16:11;;;;;;;13.10;7.67;;;26.80;41.10;;;;;;1818576;77;21095;-79
2021/12/04 08:18:42;;;;;;;12.00;7.25;;;26.80;41.40;;;;;;1800074;79;21112;-79
2021/12/04 08:21:13;;;;;;;14.35;7.95;;;26.70;41.70;;;;;;1830384;77;21170;-79
2021/12/04 08:23:44;;;;;;;15.98;8.10;;;26.80;42.10;;;;;;1825368;78;21862;-80
2021/12/04 08:26:15;;;;;;;13.10;7.70;;;26.80;41.30;;;;;;1793296;79;21209;-79
2021/12/04 08:28:47;;;;;;;13.88;7.87;;;26.70;41.80;;;;;;1828762;78;21539;-78
2021/12/04 08:31:18;;;;;;;13.65;8.05;;;26.70;41.90;;;;;;1790067;80;21666;-78
2021/12/04 08:33:49;;;;;;;15.05;8.25;;;26.70;41.60;;;;;;1834479;77;21154;-79
2021/12/04 08:36:21;;;;;;;12.50;7.65;;;26.70;42.30;;;;;;1796040;80;21178;-79
2021/12/04 08:38:52;;;;;;;14.23;7.75;;;26.70;41.80;;;;;;1830011;78;21065;-80
2021/12/04 08:41:23;;;;;;;12.95;7.65;;;26.60;40.70;;;;;;1829794;78;21131;-79
2021/12/04 08:43:55;;;;;;;14.35;7.83;;;26.60;41.30;;;;;;1830045;78;21505;-80
2021/12/04 08:46:26;;;;;;;15.45;7.78;;;26.60;41.80;;;;;;1829966;78;21202;-80
2021/12/04 08:48:57;;;;;;;12.07;7.58;;;26.60;41.80;;;;;;1829981;78;21068;-78
2021/12/04 08:51:29;;;;;;;16.45;7.92;;;26.60;42.40;;;;;;1819416;79;21593;-78
2021/12/04 08:54:00;;;;;;;17.67;7.55;;;26.60;42.30;;;;;;1795231;79;21454;-79
2021/12/04 08:56:33;;;;;;;17.32;7.75;;;26.60;41.70;;;;;;1830452;77;21122;-79
2021/12/04 08:59:07;;;;;;;12.53;6.90;;;26.60;41.90;;;;;;1831814;77;21139;-78
2021/12/04 09:01:40;;;;;;;12.90;7.70;;;26.60;41.70;;;;;;1835089;77;21224;-78
2021/12/04 09:04:13;;;;;;;14.45;7.62;;;26.60;42.10;;;;;;1827860;78;21216;-78
2021/12/04 09:06:45;;;;;;;14.78;8.40;;;26.50;42.20;;;;;;1803884;79;21682;-78
2021/12/04 09:09:16;;;;;;;15.70;8.53;;;26.50;42.50;;;;;;1830261;77;21602;-77
2021/12/04 09:11:49;;;;;;;15.20;7.65;;;26.50;42.70;;;;;;1829938;78;21127;-78
2021/12/04 09:14:23;;;;;;;17.70;8.30;;;26.50;42.40;;;;;;1829826;78;21143;-79
2021/12/04 09:16:56;;;;;;;15.98;9.60;;;26.50;42.30;;;;;;1829883;78;21588;-78
2021/12/04 09:19:27;;;;;;;14.18;8.23;;;26.40;42.70;;;;;;1829921;77;21551;-78
2021/12/04 09:21:58;;;;;;;16.37;7.78;;;26.40;42.00;;;;;;1831439;77;21170;-78
2021/12/04 09:24:39;;;;;;;17.60;7.80;;;26.40;41.80;;;;;;1828368;77;21149;-78
2021/12/04 09:29:57;;;;;;;13.30;7.60;;;26.30;41.00;;;;;;1829990;78;21107;-79
2021/12/04 09:32:29;;;;;;;11.57;7.37;;;26.30;41.60;;;;;;1827587;78;21873;-79
2021/12/04 10:05:33;;;;;;;19.20;8.45;;;25.70;42.60;;;;;;1815477;78;21728;-79
2021/12/04 10:15:48;;;;;;;13.20;7.78;;;25.50;43.10;;;;;;1818732;79;21121;-79
2021/12/04 10:20:49;;;;;;;14.83;8.45;;;25.40;42.90;;;;;;1817732;79;21145;-79
2021/12/04 10:33:21;;;;;;;21.85;11.20;;;25.20;44.00;;;;;;1787337;80;21711;-78
2021/12/04 10:35:53;;;;;;;18.75;10.85;;;25.20;44.20;;;;;;1807632;79;21076;-79
2021/12/04 10:38:28;;;;;;;16.07;9.58;;;25.20;44.30;;;;;;1819026;79;21150;-79
2021/12/04 10:40:59;;;;;;;21.02;11.90;;;25.10;44.50;;;;;;1818043;79;21174;-79
2021/12/04 10:43:32;;;;;;;20.37;10.53;;;25.10;44.50;;;;;;1817211;79;21162;-79
2021/12/04 10:46:11;;;;;;;18.05;10.98;;;25.00;44.30;;;;;;1818369;79;21119;-79
2021/12/04 10:48:45;;;;;;;18.05;11.55;;;25.00;44.20;;;;;;1818238;79;21551;-79
2021/12/04 10:51:23;;;;;;;21.23;13.53;;;25.00;44.20;;;;;;1818296;79;21592;-79
2021/12/04 10:53:55;;;;;;;23.85;12.18;;;24.90;44.20;;;;;;1810814;79;21143;-79
2021/12/04 11:04:08;;;;;;;30.15;16.90;;;24.80;44.70;;;;;;1817564;79;21692;-79
2021/12/04 11:22:14;;;;;;;28.47;14.53;;;24.60;46.20;;;;;;1806840;78;21140;-80
2021/12/04 11:42:24;;;;;;;28.42;16.77;;;24.30;47.60;;;;;;1819946;79;21067;-79
2021/12/04 11:44:52;;;;;;;38.55;17.35;;;24.30;47.70;;;;;;1817455;79;21668;-78
2021/12/04 11:47:18;;;;;;;27.90;16.85;;;24.20;48.20;;;;;;1816077;79;21178;-79
2021/12/04 11:49:50;;;;;;;37.80;17.80;;;24.10;48.10;;;;;;1814677;79;21607;-79
2021/12/04 11:52:23;;;;;;;33.83;17.87;;;24.10;48.10;;;;;;1814771;79;21139;-79
2021/12/04 11:55:01;;;;;;;29.67;16.42;;;24.10;47.90;;;;;;1814868;79;21213;-79
2021/12/04 11:57:31;;;;;;;31.80;16.52;;;24.00;47.90;;;;;;1806415;79;21571;-79
2021/12/04 12:00:04;;;;;;;38.25;18.90;;;24.00;47.90;;;;;;1818497;79;21099;-78
2021/12/04 12:02:36;;;;;;;37.90;18.60;;;23.90;48.00;;;;;;1814212;78;21591;-78
2021/12/04 12:05:12;;;;;;;44.23;26.93;;;23.90;48.20;;;;;;1814487;78;21596;-78
2021/12/04 12:07:42;;;;;;;48.20;28.98;;;23.90;48.20;;;;;;1818886;79;21517;-79
2021/12/04 12:10:14;;;;;;;60.85;34.30;;;23.90;48.20;;;;;;1817789;78;21064;-79
2021/12/04 12:12:48;;;;;;;63.42;35.90;;;23.80;48.20;;;;;;1814967;78;21127;-78
2021/12/04 12:15:23;;;;;;;57.65;35.48;;;23.80;48.20;;;;;;1817967;79;21910;-79
2021/12/04 12:17:54;;;;;;;58.28;34.58;;;23.70;48.10;;;;;;1814751;78;21114;-78
2021/12/04 12:20:30;;;;;;;52.10;32.17;;;23.70;48.30;;;;;;1815067;79;21162;-78
2021/12/04 12:23:03;;;;;;;48.17;28.40;;;23.70;48.30;;;;;;1814252;78;21524;-78
2021/12/04 12:38:30;;;;;;;35.85;22.98;;;23.50;48.20;;;;;;1812717;79;21623;-79
2021/12/04 12:41:03;;;;;;;43.80;22.17;;;23.50;48.20;;;;;;1818946;79;21533;-79
2021/12/04 12:43:36;;;;;;;40.88;23.35;;;23.40;48.10;;;;;;1818770;79;21077;-79
2021/12/04 12:46:07;;;;;;;40.95;22.87;;;23.40;48.00;;;;;;1818585;79;21560;-79
2021/12/04 12:48:41;;;;;;;40.00;23.80;;;23.40;48.10;;;;;;1818904;79;22308;-79
2021/12/04 12:51:12;;;;;;;42.23;24.12;;;23.40;48.00;;;;;;1816736;79;21161;-79
2021/12/04 12:53:45;;;;;;;42.62;24.87;;;23.40;48.70;;;;;;1819009;79;21167;-79
2021/12/04 12:56:16;;;;;;;45.45;24.77;;;23.40;48.10;;;;;;1818923;79;21117;-80
2021/12/04 13:14:09;;;;;;;42.95;23.20;;;23.20;48.00;;;;;;1779659;80;21143;-80
2021/12/04 13:16:43;;;;;;;40.98;22.80;;;23.10;48.10;;;;;;1804589;79;21116;-79
2021/12/04 13:19:18;;;;;;;43.20;22.70;;;23.10;48.10;;;;;;1808952;79;21154;-78
2021/12/04 13:21:51;;;;;;;41.80;22.52;;;23.10;48.30;;;;;;1806539;79;21661;-78
2021/12/04 13:24:25;;;;;;;40.28;21.82;;;23.10;48.30;;;;;;1795896;80;21708;-77
2021/12/04 13:29:31;;;;;;;39.05;21.75;;;23.00;48.20;;;;;;1794964;80;21674;-78
2021/12/04 13:32:03;;;;;;;33.58;21.30;;;23.00;48.30;;;;;;1795808;79;21256;-78
2021/12/04 13:34:36;;;;;;;37.38;22.20;;;23.00;48.30;;;;;;1798783;79;21111;-79
2021/12/04 13:37:07;;;;;;;42.83;23.35;;;22.90;48.40;;;;;;1815539;79;21145;-79
2021/12/04 13:39:41;;;;;;;40.83;22.62;;;22.90;49.30;;;;;;1815457;79;21139;-79
2021/12/04 13:42:11;;;;;;;34.98;22.62;;;22.90;48.70;;;;;;1815378;79;21271;-79
2021/12/04 13:44:42;;;;;;;41.55;23.32;;;22.90;48.70;;;;;;1815224;79;21170;-80
2021/12/04 13:47:17;;;;;;;36.65;22.40;;;22.90;48.80;;;;;;1810147;79;21167;-79
2021/12/04 13:49:57;;;;;;;42.00;23.67;;;22.90;48.80;;;;;;1813769;79;22456;-79
2021/12/04 13:52:22;;;;;;;40.43;23.25;;;22.80;48.90;;;;;;1812829;78;21205;-80
2021/12/04 13:54:56;;;;;;;47.40;24.90;;;22.80;48.90;;;;;;1795981;80;21599;-79
2021/12/04 13:57:28;;;;;;;43.13;25.70;;;22.80;49.10;;;;;;1795804;79;21206;-79
2021/12/04 14:00:03;;;;;;;42.58;26.15;;;22.80;49.10;;;;;;1795990;80;21100;-79
2021/12/04 14:02:37;;;;;;;37.08;25.52;;;22.80;49.30;;;;;;1804175;79;21107;-80
2021/12/04 14:05:12;;;;;;;41.77;26.87;;;22.70;49.20;;;;;;1815225;79;21143;-79
2021/12/04 14:07:46;;;;;;;45.15;26.17;;;22.70;49.20;;;;;;1804288;79;21214;-79
2021/12/04 14:10:29;;;;;;;51.15;27.07;;;22.60;49.10;;;;;;1816928;78;21138;-78
2021/12/04 14:13:03;;;;;;;47.50;25.08;;;22.60;49.20;;;;;;1819438;77;21691;-79
2021/12/04 14:15:35;;;;;;;33.73;22.90;;;22.60;49.10;;;;;;1825505;78;21198;-79
2021/12/04 14:18:08;;;;;;;38.02;24.45;;;22.60;49.10;;;;;;1817694;77;22451;-79
2021/12/04 14:20:41;;;;;;;37.20;22.45;;;22.50;49.10;;;;;;1816633;77;21265;-78
2021/12/04 14:23:13;;;;;;;38.98;22.60;;;22.50;49.20;;;;;;1818342;77;21178;-78
2021/12/04 14:25:53;;;;;;;32.73;20.55;;;22.50;49.40;;;;;;1795152;80;21584;-78
2021/12/04 14:28:24;;;;;;;34.63;20.52;;;22.40;49.40;;;;;;1808584;79;21532;-78
2021/12/04 14:30:56;;;;;;;36.53;19.92;;;22.40;49.60;;;;;;1796923;79;21167;-78
2021/12/04 14:33:31;;;;;;;32.55;19.48;;;22.30;49.60;;;;;;1828671;78;21634;-79
2021/12/04 14:36:02;;;;;;;37.28;19.12;;;22.30;49.60;;;;;;1798893;79;21179;-79
2021/12/04 14:38:34;;;;;;;32.83;18.85;;;22.30;49.80;;;;;;1820382;78;21190;-78
2021/12/04 14:41:07;;;;;;;32.80;20.27;;;22.20;49.90;;;;;;1818880;79;21534;-79
2021/12/04 14:43:40;;;;;;;34.83;20.75;;;22.20;50.60;;;;;;1818839;79;21143;-78
2021/12/04 14:46:13;;;;;;;38.60;21.37;;;22.20;51.30;;;;;;1818905;79;21170;-78
2021/12/04 14:48:51;;;;;;;40.33;22.98;;;22.10;51.70;;;;;;1818985;79;21630;-78
2021/12/04 14:51:22;;;;;;;42.50;24.07;;;22.00;52.40;;;;;;1819147;79;21225;-77
2021/12/04 14:53:57;;;;;;;44.30;25.88;;;22.00;52.90;;;;;;1818896;79;21220;-77
2021/12/04 14:56:30;;;;;;;44.25;26.00;;;21.90;53.20;;;;;;1818984;79;21608;-77
2021/12/04 14:59:03;;;;;;;48.80;25.82;;;21.80;53.00;;;;;;1819087;79;21143;-77
2021/12/04 15:01:34;;;;;;;48.75;27.85;;;21.80;53.90;;;;;;1819928;77;21602;-78
2021/12/04 15:04:06;;;;;;;43.95;25.92;;;21.70;54.10;;;;;;1822310;77;21137;-78
2021/12/04 15:06:39;;;;;;;44.40;24.77;;;21.60;54.40;;;;;;1811979;77;21222;-78
2021/12/04 15:09:14;;;;;;;41.80;26.52;;;21.60;54.80;;;;;;1811917;78;21185;-78
2021/12/04 15:11:47;;;;;;;47.40;26.33;;;21.60;55.00;;;;;;1812936;78;21133;-79
2021/12/04 15:14:20;;;;;;;44.20;25.48;;;21.60;55.30;;;;;;1829461;77;21625;-79
2021/12/04 15:16:58;;;;;;;42.90;25.75;;;21.50;55.60;;;;;;1807476;79;21497;-79
2021/12/04 15:19:38;;;;;;;49.45;26.77;;;21.50;55.80;;;;;;1839313;77;21559;-78
2021/12/04 15:22:02;;;;;;;45.28;26.00;;;21.50;56.00;;;;;;1816914;77;21176;-78
2021/12/04 15:24:39;;;;;;;45.65;26.20;;;21.50;56.30;;;;;;1818914;79;21215;-79
2021/12/04 15:27:14;;;;;;;43.13;25.62;;;21.40;56.60;;;;;;1819221;77;21218;-78
2021/12/04 15:29:48;;;;;;;44.70;25.25;;;21.40;56.70;;;;;;1818980;77;21494;-78
2021/12/04 15:32:21;;;;;;;37.73;23.90;;;21.40;57.10;;;;;;1819434;77;21151;-79
2021/12/04 15:34:59;;;;;;;41.53;24.67;;;21.40;57.00;;;;;;1813310;79;21140;-79
2021/12/04 15:37:29;;;;;;;42.80;24.75;;;21.40;57.40;;;;;;1817444;77;21128;-79
2021/12/04 15:40:00;;;;;;;43.00;25.08;;;21.40;57.20;;;;;;1819743;77;21131;-78
2021/12/04 15:42:40;;;;;;;42.98;25.52;;;21.30;57.40;;;;;;1818068;78;21168;-78
2021/12/04 15:45:58;;;;;;;40.63;23.10;;;21.30;57.30;;;;;;1817579;78;21145;-78
2021/12/04 15:55:30;;;;;;;39.10;23.95;;;21.20;58.70;;;;;;1817856;79;21619;-79
2021/12/04 15:58:04;;;;;;;44.70;24.67;;;21.20;59.10;;;;;;1819133;78;21563;-79
2021/12/04 16:00:37;;;;;;;39.30;23.83;;;21.20;59.20;;;;;;1813720;79;21209;-78
2021/12/04 16:03:13;;;;;;;43.48;23.90;;;21.20;59.70;;;;;;1818781;77;21116;-78
2021/12/04 16:05:47;;;;;;;37.93;24.77;;;21.20;59.70;;;;;;1818810;77;21209;-79
2021/12/04 16:08:23;;;;;;;44.95;24.50;;;21.20;59.60;;;;;;1818841;77;21139;-78
2021/12/04 16:10:59;;;;;;;40.55;23.05;;;21.10;59.80;;;;;;1825665;77;21216;-79